createdAt,value
2022-07-25T00:01:50.974Z,16.57
2022-07-25T00:04:18.797Z,16.35
2022-07-25T00:06:46.462Z,16.07
2022-07-25T00:09:13.963Z,15.89
2022-07-25T00:11:41.257Z,16.23
2022-07-25T00:14:09.015Z,16.56
2022-07-25T00:16:36.953Z,16.57
2022-07-25T00:19:04.444Z,16.37
2022-07-25T00:21:32.009Z,16.14
2022-07-25T00:24:03.000Z,15.99
2022-07-25T00:26:30.817Z,16.34
2022-07-25T00:28:58.166Z,16.69
2022-07-25T00:31:25.476Z,16.62
2022-07-25T00:33:52.978Z,16.39
2022-07-25T00:36:24.458Z,16.24
2022-07-25T00:38:51.783Z,16.03
2022-07-25T00:41:19.038Z,16.37
2022-07-25T00:43:46.800Z,16.59
2022-07-25T00:46:18.910Z,16.64
2022-07-25T00:48:46.668Z,16.41
2022-07-25T00:51:13.980Z,16.21
2022-07-25T00:53:43.272Z,16.06
2022-07-25T00:56:12.582Z,16.38
2022-07-25T00:58:39.838Z,16.71
2022-07-25T01:01:07.336Z,16.64
2022-07-25T01:03:34.749Z,16.38
2022-07-25T01:06:02.307Z,16.15
2022-07-25T01:08:29.561Z,15.89
2022-07-25T01:10:56.913Z,16.20
2022-07-25T01:13:26.849Z,16.48
2022-07-25T01:15:56.984Z,16.42
2022-07-25T01:18:24.302Z,16.14
2022-07-25T01:20:51.558Z,15.81
2022-07-25T01:23:18.803Z,15.52
2022-07-25T01:25:46.294Z,15.70
2022-07-25T01:28:13.723Z,15.99
2022-07-25T01:30:41.169Z,15.91
2022-07-25T01:33:08.735Z,15.68
2022-07-25T01:35:40.193Z,15.47
2022-07-25T01:38:10.612Z,15.32
2022-07-25T01:40:37.869Z,15.70
2022-07-25T01:43:05.321Z,15.94
2022-07-25T01:45:32.596Z,15.92
2022-07-25T01:48:00.042Z,15.76
2022-07-25T01:50:27.436Z,15.56
2022-07-25T01:52:54.743Z,15.40
2022-07-25T01:55:22.095Z,15.78
2022-07-25T01:57:50.011Z,16.00
2022-07-25T02:00:18.054Z,15.86
2022-07-25T02:02:45.738Z,15.61
2022-07-25T02:05:13.989Z,15.32
2022-07-25T02:07:41.223Z,15.17
2022-07-25T02:10:09.115Z,15.50
2022-07-25T02:12:36.553Z,15.63
2022-07-25T02:15:04.150Z,15.51
2022-07-25T02:17:32.080Z,15.29
2022-07-25T02:19:59.430Z,15.09
2022-07-25T02:22:26.722Z,15.32
2022-07-25T02:24:54.036Z,15.50
2022-07-25T02:27:23.114Z,15.42
2022-07-25T02:29:50.491Z,15.19
2022-07-25T02:32:17.739Z,14.93
2022-07-25T02:34:45.017Z,14.77
2022-07-25T02:37:13.368Z,15.19
2022-07-25T02:39:40.928Z,15.50
2022-07-25T02:42:08.194Z,15.42
2022-07-25T02:44:35.439Z,15.17
2022-07-25T02:47:02.713Z,14.88
2022-07-25T02:49:30.140Z,14.68
2022-07-25T02:51:58.110Z,15.08
2022-07-25T02:54:25.477Z,15.48
2022-07-25T02:56:52.718Z,15.53
2022-07-25T02:59:20.071Z,15.48
2022-07-25T03:01:47.377Z,15.39
2022-07-25T03:04:15.237Z,15.37
2022-07-25T03:06:45.113Z,15.83
2022-07-25T03:09:12.367Z,16.41
2022-07-25T03:11:39.641Z,16.40
2022-07-25T03:14:09.051Z,16.35
2022-07-25T03:16:37.169Z,16.13
2022-07-25T03:19:04.562Z,16.02
2022-07-25T03:21:31.997Z,16.46
2022-07-25T03:23:59.352Z,16.87
2022-07-25T03:26:26.607Z,16.95
2022-07-25T03:28:54.061Z,16.81
2022-07-25T03:31:21.402Z,16.61
2022-07-25T03:33:48.975Z,16.41
2022-07-25T03:36:16.432Z,16.30
2022-07-25T03:38:43.786Z,16.65
2022-07-25T03:41:11.141Z,17.01
2022-07-25T03:43:38.408Z,17.05
2022-07-25T03:46:05.703Z,16.85
2022-07-25T03:48:33.181Z,16.81
2022-07-25T03:51:06.465Z,16.78
2022-07-25T03:53:54.646Z,17.02
2022-07-25T03:56:22.003Z,17.21
2022-07-25T03:58:49.246Z,16.96
2022-07-25T04:01:16.716Z,16.66
2022-07-25T04:03:46.825Z,16.48
2022-07-25T04:06:14.281Z,16.10
2022-07-25T04:08:41.637Z,16.49
2022-07-25T04:11:08.887Z,16.77
2022-07-25T04:13:36.057Z,16.54
2022-07-25T04:16:03.379Z,16.45
2022-07-25T04:18:32.539Z,16.29
2022-07-25T04:21:02.214Z,16.24
2022-07-25T04:23:29.353Z,16.64
2022-07-25T04:25:57.116Z,16.97
2022-07-25T04:28:27.537Z,17.02
2022-07-25T04:30:54.790Z,17.02
2022-07-25T04:33:23.311Z,16.84
2022-07-25T04:35:51.240Z,16.74
2022-07-25T04:38:18.739Z,16.98
2022-07-25T04:40:46.052Z,17.45
2022-07-25T04:43:13.405Z,17.42
2022-07-25T04:45:40.773Z,17.48
2022-07-25T04:48:08.428Z,17.50
2022-07-25T04:50:35.818Z,17.19
2022-07-25T04:53:03.038Z,17.12
2022-07-25T04:55:30.658Z,17.69
2022-07-25T04:57:59.239Z,18.14
2022-07-25T05:00:27.244Z,18.09
2022-07-25T05:02:54.703Z,18.07
2022-07-25T05:05:22.364Z,17.88
2022-07-25T05:07:50.907Z,17.81
2022-07-25T05:10:18.508Z,17.52
2022-07-25T05:12:45.867Z,17.44
2022-07-25T05:15:13.215Z,17.95
2022-07-25T05:17:40.488Z,18.11
2022-07-25T05:20:08.810Z,18.07
2022-07-25T05:22:36.111Z,18.12
2022-07-25T05:25:03.866Z,17.83
2022-07-25T05:27:31.216Z,17.88
2022-07-25T05:29:58.674Z,18.09
2022-07-25T05:32:26.130Z,18.57
2022-07-25T05:34:53.415Z,19.08
2022-07-25T05:37:20.738Z,18.85
2022-07-25T05:39:48.817Z,18.68
2022-07-25T05:42:16.279Z,18.70
2022-07-25T05:44:43.620Z,18.54
2022-07-25T05:47:13.383Z,18.39
2022-07-25T05:49:40.992Z,17.98
2022-07-25T05:52:12.446Z,17.89
2022-07-25T05:54:40.748Z,18.36
2022-07-25T05:57:10.009Z,18.69
2022-07-25T05:59:37.586Z,18.55
2022-07-25T06:02:05.021Z,18.35
2022-07-25T06:04:33.006Z,18.33
2022-07-25T06:07:01.503Z,18.30
2022-07-25T06:09:29.046Z,18.31
2022-07-25T06:12:00.621Z,18.53
2022-07-25T06:14:29.462Z,18.88
2022-07-25T06:16:57.753Z,18.74
2022-07-25T06:19:25.228Z,18.51
2022-07-25T06:21:54.013Z,18.55
2022-07-25T06:24:21.368Z,18.59
2022-07-25T06:26:48.823Z,18.62
2022-07-25T06:29:18.386Z,19.19
2022-07-25T06:31:47.149Z,19.62
2022-07-25T06:34:15.087Z,19.57
2022-07-25T06:36:42.338Z,19.31
2022-07-25T06:39:09.795Z,19.02
2022-07-25T06:41:38.088Z,18.91
2022-07-25T06:44:05.969Z,18.71
2022-07-25T06:46:33.809Z,18.51
2022-07-25T06:49:01.218Z,18.96
2022-07-25T06:51:28.937Z,19.24
2022-07-25T06:53:57.213Z,19.36
2022-07-25T06:56:24.867Z,19.35
2022-07-25T06:58:54.161Z,19.20
2022-07-25T07:01:21.467Z,18.93
2022-07-25T07:03:49.153Z,18.71
2022-07-25T07:06:16.655Z,18.36
2022-07-25T07:08:44.316Z,18.73
2022-07-25T07:11:13.858Z,19.17
2022-07-25T07:13:41.776Z,19.30
2022-07-25T07:16:09.191Z,19.36
2022-07-25T07:18:38.688Z,19.32
2022-07-25T07:23:25.331Z,19.32
2022-07-25T07:25:52.716Z,19.23
2022-07-25T07:28:20.187Z,19.53
2022-07-25T07:33:35.765Z,20.00
2022-07-25T07:36:03.228Z,19.71
2022-07-25T07:38:30.475Z,19.58
2022-07-25T07:40:57.733Z,19.86
2022-07-25T07:43:29.961Z,20.05
2022-07-25T07:46:01.554Z,20.36
2022-07-25T07:48:30.017Z,20.09
2022-07-25T07:50:58.204Z,19.79
2022-07-25T07:53:44.100Z,19.57
2022-07-25T07:56:12.474Z,19.29
2022-07-25T07:58:39.934Z,19.28
2022-07-25T08:01:07.490Z,19.66
2022-07-25T08:03:34.882Z,19.91
2022-07-25T08:06:02.301Z,20.01
2022-07-25T08:08:31.826Z,20.34
2022-07-25T08:10:59.878Z,20.11
2022-07-25T08:13:30.383Z,19.57
2022-07-25T08:15:59.447Z,19.63
2022-07-25T08:18:27.880Z,19.60
2022-07-25T08:20:55.242Z,19.18
2022-07-25T08:23:32.278Z,19.25
2022-07-25T08:25:59.891Z,19.54
2022-07-25T08:28:28.881Z,19.42
2022-07-25T08:30:56.909Z,19.42
2022-07-25T08:33:24.520Z,19.54
2022-07-25T08:35:55.532Z,19.95
2022-07-25T08:38:25.361Z,20.36
2022-07-25T08:40:53.751Z,20.56
2022-07-25T08:43:21.498Z,20.50
2022-07-25T08:45:52.125Z,20.71
2022-07-25T08:48:24.387Z,20.79
2022-07-25T08:50:52.300Z,21.19
2022-07-25T08:53:36.295Z,21.59
2022-07-25T08:56:11.212Z,21.41
2022-07-25T08:58:40.692Z,21.02
2022-07-25T09:01:08.518Z,21.02
2022-07-25T09:03:36.704Z,21.35
2022-07-25T09:06:22.584Z,21.72
2022-07-25T09:08:58.502Z,22.10
2022-07-25T09:11:35.617Z,22.73
2022-07-25T09:14:09.170Z,22.77
2022-07-25T09:16:40.315Z,21.81
2022-07-25T09:19:18.567Z,21.10
2022-07-25T09:21:57.910Z,21.34
2022-07-25T09:24:26.799Z,22.03
2022-07-25T09:26:55.809Z,22.33
2022-07-25T09:29:33.026Z,22.93
2022-07-25T09:32:01.280Z,22.38
2022-07-25T09:34:32.292Z,21.68
2022-07-25T09:36:59.873Z,21.88
2022-07-25T09:39:45.037Z,22.50
2022-07-25T09:42:27.466Z,23.04
2022-07-25T09:45:12.967Z,23.27
2022-07-25T09:47:54.710Z,22.83
2022-07-25T09:50:22.793Z,23.05
2022-07-25T09:52:54.433Z,23.46
2022-07-25T09:55:22.300Z,23.31
2022-07-25T09:57:50.182Z,22.75
2022-07-25T10:00:24.474Z,22.64
2022-07-25T10:03:18.400Z,22.91
2022-07-25T10:05:51.765Z,23.63
2022-07-25T10:08:19.523Z,22.95
2022-07-25T10:10:46.983Z,22.83
2022-07-25T10:13:17.618Z,23.00
2022-07-25T10:15:44.964Z,23.37
2022-07-25T10:18:12.832Z,23.12
2022-07-25T10:20:40.291Z,22.47
2022-07-25T10:23:37.175Z,22.22
2022-07-25T10:26:14.098Z,22.67
2022-07-25T10:28:43.212Z,23.18
2022-07-25T10:31:35.143Z,23.51
2022-07-25T10:34:04.799Z,23.89
2022-07-25T10:36:45.622Z,24.18
2022-07-25T10:39:14.310Z,24.47
2022-07-25T10:41:43.633Z,24.33
2022-07-25T10:44:14.906Z,23.84
2022-07-25T10:46:45.283Z,23.74
2022-07-25T10:49:31.781Z,23.34
2022-07-25T10:52:01.136Z,23.19
2022-07-25T10:54:41.445Z,22.86
2022-07-25T10:57:15.027Z,22.27
2022-07-25T10:59:42.503Z,22.20
2022-07-25T11:02:20.978Z,22.28
2022-07-25T11:05:02.469Z,22.45
2022-07-25T11:07:36.249Z,22.31
2022-07-25T11:10:05.370Z,22.48
2022-07-25T11:12:34.693Z,22.64
2022-07-25T11:15:03.786Z,22.63
2022-07-25T11:17:31.279Z,22.67
2022-07-25T11:20:09.443Z,22.69
2022-07-25T11:22:36.940Z,22.81
2022-07-25T11:25:15.669Z,22.54
2022-07-25T11:27:43.030Z,22.65
2022-07-25T11:30:12.311Z,22.76
2022-07-25T11:33:01.754Z,22.56
2022-07-25T11:35:33.444Z,22.46
2022-07-25T11:38:02.668Z,22.43
2022-07-25T11:40:32.977Z,22.50
2022-07-25T11:43:00.416Z,22.59
2022-07-25T11:45:33.799Z,22.64
2022-07-25T11:48:13.738Z,22.82
2022-07-25T11:50:45.414Z,22.94
2022-07-25T11:53:18.923Z,22.85
2022-07-25T11:55:47.497Z,22.65
2022-07-25T11:58:14.990Z,22.37
2022-07-25T12:00:42.217Z,22.17
2022-07-25T12:03:14.261Z,22.35
2022-07-25T12:05:46.238Z,22.53
2022-07-25T12:08:20.424Z,22.69
2022-07-25T12:10:51.533Z,22.86
2022-07-25T12:13:29.189Z,22.93
2022-07-25T12:15:57.575Z,22.97
2022-07-25T12:18:25.142Z,23.06
2022-07-25T12:20:53.711Z,23.13
2022-07-25T12:23:22.332Z,23.29
2022-07-25T12:25:49.761Z,23.26
2022-07-25T12:28:17.213Z,23.47
2022-07-25T12:30:45.389Z,23.83
2022-07-25T12:33:13.455Z,23.92
2022-07-25T12:35:41.833Z,23.79
2022-07-25T12:38:09.602Z,23.53
2022-07-25T12:40:37.470Z,23.62
2022-07-25T12:43:05.190Z,23.87
2022-07-25T12:45:32.705Z,24.16
2022-07-25T12:48:00.247Z,24.04
2022-07-25T12:50:27.602Z,23.97
2022-07-25T12:52:55.058Z,23.96
2022-07-25T12:55:22.537Z,23.86
2022-07-25T12:57:50.282Z,23.69
2022-07-25T13:00:19.305Z,23.41
2022-07-25T13:02:46.951Z,23.42
2022-07-25T13:05:14.392Z,23.25
2022-07-25T13:07:41.745Z,23.28
2022-07-25T13:10:09.879Z,23.11
2022-07-25T13:12:37.174Z,22.97
2022-07-25T13:15:05.626Z,23.11
2022-07-25T13:17:33.419Z,23.62
2022-07-25T13:20:02.931Z,23.78
2022-07-25T13:22:30.387Z,23.90
2022-07-25T13:24:57.638Z,24.35
2022-07-25T13:27:25.004Z,24.16
2022-07-25T13:29:56.641Z,23.49
2022-07-25T13:32:27.378Z,23.30
2022-07-25T13:34:55.266Z,23.29
2022-07-25T13:37:23.111Z,23.34
2022-07-25T13:39:50.467Z,23.86
2022-07-25T13:42:17.821Z,23.94
2022-07-25T13:44:45.003Z,24.02
2022-07-25T13:47:12.342Z,24.03
2022-07-25T13:49:41.532Z,23.76
2022-07-25T13:52:08.877Z,23.62
2022-07-25T13:54:36.132Z,23.72
2022-07-25T13:57:03.961Z,24.06
2022-07-25T13:59:31.357Z,24.12
2022-07-25T14:01:58.886Z,23.88
2022-07-25T14:04:26.367Z,23.76
2022-07-25T14:06:54.336Z,23.46
2022-07-25T14:09:21.828Z,23.19
2022-07-25T14:11:49.176Z,23.09
2022-07-25T14:14:16.606Z,23.14
2022-07-25T14:16:43.936Z,23.39
2022-07-25T14:19:11.314Z,23.75
2022-07-25T14:21:38.672Z,23.99
2022-07-25T14:24:06.660Z,24.00
2022-07-25T14:26:34.857Z,23.66
2022-07-25T14:29:03.134Z,23.81
2022-07-25T14:31:32.499Z,24.04
2022-07-25T14:33:59.752Z,23.96
2022-07-25T14:36:27.130Z,24.16
2022-07-25T14:38:56.078Z,24.25
2022-07-25T14:41:23.451Z,24.18
2022-07-25T14:43:50.820Z,24.16
2022-07-25T14:46:18.102Z,24.17
2022-07-25T14:48:45.698Z,24.16
2022-07-25T14:51:12.969Z,24.17
2022-07-25T14:53:40.428Z,24.35
2022-07-25T14:56:08.305Z,24.29
2022-07-25T14:58:35.856Z,24.34
2022-07-25T15:01:03.267Z,24.35
2022-07-25T15:03:30.570Z,24.49
2022-07-25T15:05:58.231Z,24.58
2022-07-25T15:08:25.594Z,24.27
2022-07-25T15:10:53.044Z,24.37
2022-07-25T15:13:31.120Z,24.54
2022-07-25T15:15:59.479Z,24.38
2022-07-25T15:18:26.984Z,24.15
2022-07-25T15:20:55.666Z,24.07
2022-07-25T15:23:25.278Z,24.14
2022-07-25T15:26:03.311Z,24.08
2022-07-25T15:28:35.558Z,24.07
2022-07-25T15:31:03.318Z,24.01
2022-07-25T15:33:30.872Z,23.86
2022-07-25T15:35:58.439Z,23.80
2022-07-25T15:38:26.015Z,23.84
2022-07-25T15:40:53.448Z,23.63
2022-07-25T15:43:21.465Z,23.65
2022-07-25T15:45:48.785Z,23.90
2022-07-25T15:48:16.604Z,23.96
2022-07-25T15:50:46.390Z,23.95
2022-07-25T15:53:14.118Z,23.97
2022-07-25T15:55:42.086Z,24.04
2022-07-25T15:58:10.468Z,24.01
2022-07-25T16:00:38.938Z,23.91
2022-07-25T16:03:06.954Z,23.91
2022-07-25T16:05:34.528Z,23.80
2022-07-25T16:08:02.364Z,23.59
2022-07-25T16:10:32.797Z,23.50
2022-07-25T16:13:00.353Z,23.38
2022-07-25T16:15:27.785Z,23.32
2022-07-25T16:18:01.777Z,23.20
2022-07-25T16:20:32.755Z,23.14
2022-07-25T16:23:04.087Z,23.11
2022-07-25T16:25:31.472Z,23.09
2022-07-25T16:28:00.459Z,23.13
2022-07-25T16:30:29.011Z,23.13
2022-07-25T16:32:58.114Z,23.08
2022-07-25T16:35:25.368Z,23.06
2022-07-25T16:37:52.715Z,23.08
2022-07-25T16:40:21.062Z,23.03
2022-07-25T16:42:52.338Z,23.01
2022-07-25T16:45:21.740Z,23.00
2022-07-25T16:47:49.001Z,23.05
2022-07-25T16:50:16.357Z,23.01
2022-07-25T16:52:43.808Z,23.05
2022-07-25T16:55:11.262Z,23.03
2022-07-25T16:57:39.086Z,22.92
2022-07-25T17:00:08.322Z,22.87
2022-07-25T17:02:35.588Z,22.84
2022-07-25T17:05:02.963Z,22.77
2022-07-25T17:07:30.393Z,22.69
2022-07-25T17:09:57.748Z,22.63
2022-07-25T17:12:25.005Z,22.54
2022-07-25T17:14:52.253Z,22.50
2022-07-25T17:17:19.837Z,22.44
2022-07-25T17:19:47.069Z,22.37
2022-07-25T17:22:14.428Z,22.33
2022-07-25T17:24:42.498Z,22.32
2022-07-25T17:27:10.150Z,22.27
2022-07-25T17:29:37.921Z,22.24
2022-07-25T17:32:08.649Z,22.15
2022-07-25T17:34:36.210Z,22.07
2022-07-25T17:37:03.582Z,22.01
2022-07-25T17:39:31.226Z,21.91
2022-07-25T17:41:58.516Z,21.78
2022-07-25T17:44:25.935Z,21.65
2022-07-25T17:46:54.069Z,21.47
2022-07-25T17:49:22.288Z,21.32
2022-07-25T17:51:51.530Z,21.16
2022-07-25T17:54:18.840Z,20.94
2022-07-25T17:57:04.622Z,20.72
2022-07-25T17:59:32.103Z,20.49
2022-07-25T18:01:59.586Z,20.27
2022-07-25T18:04:27.659Z,20.07
2022-07-25T18:06:54.864Z,19.86
2022-07-25T18:09:23.042Z,19.69
2022-07-25T18:11:50.827Z,19.52
2022-07-25T18:14:18.160Z,19.35
2022-07-25T18:16:45.917Z,19.17
2022-07-25T18:19:13.895Z,19.03
2022-07-25T18:21:41.451Z,18.89
2022-07-25T18:24:09.172Z,18.73
2022-07-25T18:26:36.873Z,18.55
2022-07-25T18:29:04.844Z,18.34
2022-07-25T18:31:32.168Z,18.17
2022-07-25T18:33:59.860Z,18.01
2022-07-25T18:36:27.659Z,17.82
2022-07-25T18:38:55.082Z,17.66
2022-07-25T18:41:30.734Z,18.05
2022-07-25T18:43:58.224Z,18.53
2022-07-25T18:46:26.228Z,18.53
2022-07-25T18:48:56.495Z,18.36
2022-07-25T18:51:23.936Z,18.13
2022-07-25T18:53:51.288Z,17.89
2022-07-25T18:56:18.854Z,17.68
2022-07-25T18:58:46.105Z,17.49
2022-07-25T19:01:15.669Z,17.28
2022-07-25T19:03:42.995Z,17.10
2022-07-25T19:06:10.524Z,16.96
2022-07-25T19:08:38.084Z,17.38
2022-07-25T19:11:05.448Z,17.89
2022-07-25T19:13:50.924Z,17.90
2022-07-25T19:16:19.332Z,17.68
2022-07-25T19:18:47.293Z,17.42
2022-07-25T19:21:14.822Z,17.18
2022-07-25T19:23:45.736Z,16.91
2022-07-25T19:26:20.080Z,16.67
2022-07-25T19:28:47.543Z,16.49
2022-07-25T19:31:15.327Z,16.37
2022-07-25T19:33:42.901Z,16.85
2022-07-25T19:36:12.202Z,17.43
2022-07-25T19:38:39.513Z,17.54
2022-07-25T19:41:08.482Z,17.39
2022-07-25T19:43:35.658Z,17.18
2022-07-25T19:46:03.013Z,16.94
2022-07-25T19:48:30.505Z,16.66
2022-07-25T19:50:57.930Z,16.34
2022-07-25T19:53:28.680Z,16.07
2022-07-25T19:55:56.325Z,16.46
2022-07-25T19:58:23.880Z,16.95
2022-07-25T20:00:51.259Z,17.03
2022-07-25T20:03:23.227Z,16.88
2022-07-25T20:05:51.278Z,16.63
2022-07-25T20:08:19.340Z,16.37
2022-07-25T20:10:47.718Z,16.12
2022-07-25T20:13:15.318Z,15.88
2022-07-25T20:15:42.535Z,16.23
2022-07-25T20:18:09.991Z,16.66
2022-07-25T20:20:37.649Z,16.67
2022-07-25T20:23:05.002Z,16.49
2022-07-25T20:25:32.568Z,16.26
2022-07-25T20:27:59.918Z,15.98
2022-07-25T20:30:30.377Z,15.73
2022-07-25T20:33:09.365Z,15.51
2022-07-25T20:35:38.111Z,15.96
2022-07-25T20:38:09.009Z,16.42
2022-07-25T20:40:43.832Z,16.42
2022-07-25T20:43:15.690Z,16.18
2022-07-25T20:45:43.141Z,15.91
2022-07-25T20:48:10.599Z,15.64
2022-07-25T20:50:38.366Z,15.38
2022-07-25T20:53:07.823Z,15.15
2022-07-25T20:55:35.124Z,15.54
2022-07-25T20:58:03.091Z,15.96
2022-07-25T21:00:31.267Z,15.94
2022-07-25T21:02:59.072Z,15.76
2022-07-25T21:05:26.797Z,15.53
2022-07-25T21:07:54.264Z,15.29
2022-07-25T21:10:21.808Z,15.09
2022-07-25T21:12:49.372Z,15.43
2022-07-25T21:15:16.869Z,15.86
2022-07-25T21:17:44.083Z,15.86
2022-07-25T21:20:14.543Z,15.63
2022-07-25T21:22:42.505Z,15.33
2022-07-25T21:25:10.642Z,15.03
2022-07-25T21:27:38.616Z,14.76
2022-07-25T21:30:07.101Z,15.05
2022-07-25T21:32:34.355Z,15.51
2022-07-25T21:35:01.917Z,15.53
2022-07-25T21:37:30.534Z,15.32
2022-07-25T21:39:57.845Z,15.06
2022-07-25T21:42:25.306Z,14.80
2022-07-25T21:44:55.429Z,14.58
2022-07-25T21:47:22.882Z,14.94
2022-07-25T21:50:08.767Z,15.40
2022-07-25T21:52:38.786Z,15.36
2022-07-25T21:55:07.163Z,15.10
2022-07-25T21:57:34.517Z,14.82
2022-07-25T22:00:01.785Z,14.52
2022-07-25T22:02:29.123Z,14.27
2022-07-25T22:04:56.520Z,14.57
2022-07-25T22:07:25.892Z,14.97
2022-07-25T22:09:53.448Z,14.94
2022-07-25T22:12:20.926Z,14.71
2022-07-25T22:14:48.254Z,14.42
2022-07-25T22:17:15.754Z,14.12
2022-07-25T22:19:42.959Z,13.86
2022-07-25T22:22:10.220Z,14.17
2022-07-25T22:24:39.926Z,14.66
2022-07-25T22:27:09.639Z,14.70
2022-07-25T22:29:36.987Z,14.50
2022-07-25T22:32:05.032Z,14.24
2022-07-25T22:34:32.519Z,13.93
2022-07-25T22:36:59.982Z,13.68
2022-07-25T22:39:27.326Z,14.03
2022-07-25T22:41:54.636Z,14.47
2022-07-25T22:44:22.036Z,14.49
2022-07-25T22:46:49.287Z,14.28
2022-07-25T22:49:16.757Z,13.95
2022-07-25T22:51:44.098Z,13.67
2022-07-25T22:54:11.352Z,13.44
2022-07-25T22:56:38.607Z,13.79
2022-07-25T22:59:06.172Z,14.24
2022-07-25T23:01:33.748Z,14.27
2022-07-25T23:04:01.015Z,14.09
2022-07-25T23:06:28.372Z,13.83
2022-07-25T23:08:57.235Z,13.57
2022-07-25T23:11:24.470Z,13.33
2022-07-25T23:13:51.723Z,13.69
2022-07-25T23:16:19.531Z,14.18
2022-07-25T23:18:46.840Z,14.21
2022-07-25T23:21:14.101Z,13.99
2022-07-25T23:23:41.347Z,13.68
2022-07-25T23:26:08.623Z,13.34
2022-07-25T23:28:35.851Z,13.07
2022-07-25T23:31:03.201Z,13.41
2022-07-25T23:33:30.765Z,13.87
2022-07-25T23:35:58.331Z,13.91
2022-07-25T23:38:25.700Z,13.73
2022-07-25T23:40:55.296Z,13.46
2022-07-25T23:43:55.901Z,13.15
2022-07-25T23:46:09.967Z,12.88
2022-07-25T23:48:39.277Z,13.31
2022-07-25T23:51:06.870Z,13.78
2022-07-25T23:53:36.020Z,13.77
2022-07-25T23:56:03.388Z,13.56
2022-07-25T23:58:31.878Z,13.29
